55FL weather

The Murphy Company Heliport
West Palm Beach, Florida, United States

Public forecast

Using degrees Fahrenheit for public forecast. Weather courtesy of forecast.io.

Closest aviation weather report (METAR) to The Murphy Company Heliport

Closest report is Palm Beach International Airport, 2.1 nm (3.8 km) W. Retrieved 2019/11/17 12:53 UTC (57 minutes ago):

KPBI 171253Z 32008KT 10SM OVC013 13/10 A2992 RMK AO2 SLP132 T01330100

Closest aviation forecast (TAF) to The Murphy Company Heliport

Closest forecast is Palm Beach International Airport, 2.1 nm (3.8 km) W. Retrieved 2019/11/17 12:28 UTC (1 hour ago):

TAF KPBI 171121Z 1712/1812 32010KT P6SM BKN010 FM171500 32010KT P6SM FEW035 SCT050 FM180000 VRB05KT P6SM FEW050